Time;durP1;ratioP1;P1;durP2;ratioP2;P2;SDS_P1;SDS_P2;PMS_P1;PMS_P2;Temp;Humidity;BMP_temperature;BMP_pressure;BME280_temperature;BME280_humidity;BME280_pressure;Samples;Min_cycle;Max_cycle;Signal;HPM_P1;HPM_P2
2021/12/26 00:00:47;;;;;;;14.70;6.77;;;;;;;;;;4979218;28;20168;-64
2021/12/26 00:03:14;;;;;;;14.73;6.57;;;;;;;;;;5003657;28;20042;-64
2021/12/26 00:05:40;;;;;;;13.38;6.45;;;;;;;;;;4990312;28;20160;-63
2021/12/26 00:08:06;;;;;;;19.63;7.23;;;;;;;;;;4990248;28;20062;-64
2021/12/26 00:10:32;;;;;;;16.23;6.80;;;;;;;;;;5003458;28;20053;-64
2021/12/26 00:12:59;;;;;;;15.00;7.32;;;;;;;;;;4991214;28;20174;-63
2021/12/26 00:15:25;;;;;;;13.55;6.68;;;;;;;;;;4990012;28;20133;-63
2021/12/26 00:17:51;;;;;;;15.30;7.22;;;;;;;;;;4995328;28;20474;-63
2021/12/26 00:20:18;;;;;;;15.98;6.95;;;;;;;;;;5009275;28;20042;-64
2021/12/26 00:22:44;;;;;;;13.27;6.70;;;;;;;;;;5009380;28;20141;-63
2021/12/26 00:25:11;;;;;;;16.17;6.90;;;;;;;;;;5009298;28;20137;-64
2021/12/26 00:27:37;;;;;;;19.30;7.07;;;;;;;;;;5001580;28;20038;-63
2021/12/26 00:30:03;;;;;;;;;;;;;;;;;;4991308;28;20450;-63
2021/12/26 00:32:29;;;;;;;15.73;7.43;;;;;;;;;;4989849;28;19921;-64
2021/12/26 00:34:55;;;;;;;16.65;6.97;;;;;;;;;;4989829;28;20141;-64
2021/12/26 00:37:21;;;;;;;16.65;7.57;;;;;;;;;;4990081;28;20050;-64
2021/12/26 00:39:47;;;;;;;13.27;6.90;;;;;;;;;;5007031;28;20088;-63
2021/12/26 00:42:14;;;;;;;13.13;6.93;;;;;;;;;;4992754;28;20066;-63
2021/12/26 00:44:40;;;;;;;17.48;7.00;;;;;;;;;;4989791;28;20125;-63
2021/12/26 00:47:09;;;;;;;18.75;7.78;;;;;;;;;;5002999;28;20052;-62
2021/12/26 00:49:35;;;;;;;14.63;6.50;;;;;;;;;;4960923;28;20046;-64
2021/12/26 00:52:02;;;;;;;14.27;6.60;;;;;;;;;;4984526;28;20490;-63
2021/12/26 00:54:28;;;;;;;;;;;;;;;;;;4991375;28;20756;-63
2021/12/26 00:56:56;;;;;;;14.07;6.70;;;;;;;;;;4991187;28;19971;-63
2021/12/26 00:59:22;;;;;;;15.27;6.13;;;;;;;;;;5004741;28;20077;-63
2021/12/26 01:01:48;;;;;;;15.88;7.28;;;;;;;;;;5004333;28;20105;-63
2021/12/26 01:04:14;;;;;;;14.00;5.93;;;;;;;;;;4998108;28;20474;-62
2021/12/26 01:06:41;;;;;;;13.25;6.20;;;;;;;;;;4973046;28;20125;-63
2021/12/26 01:09:10;;;;;;;14.77;5.80;;;;;;;;;;4989151;28;20051;-63
2021/12/26 01:11:40;;;;;;;14.40;6.23;;;;;;;;;;5001902;28;20422;-63
2021/12/26 01:14:08;;;;;;;12.67;5.87;;;;;;;;;;5001762;28;20053;-63
2021/12/26 01:16:35;;;;;;;12.07;5.53;;;;;;;;;;4989437;28;20434;-63
2021/12/26 01:19:08;;;;;;;11.88;5.72;;;;;;;;;;4989565;28;20055;-63
2021/12/26 01:21:34;;;;;;;13.80;5.83;;;;;;;;;;4996993;28;20409;-63
2021/12/26 01:24:01;;;;;;;13.40;5.50;;;;;;;;;;5008668;28;20053;-63
2021/12/26 01:26:28;;;;;;;11.43;5.30;;;;;;;;;;5002709;28;20165;-63
2021/12/26 01:28:54;;;;;;;12.37;5.50;;;;;;;;;;5005795;28;20061;-63
2021/12/26 01:31:21;;;;;;;13.20;5.55;;;;;;;;;;5004300;28;20054;-63
2021/12/26 01:33:48;;;;;;;11.03;5.00;;;;;;;;;;4966764;28;20084;-63
2021/12/26 01:36:14;;;;;;;13.77;5.27;;;;;;;;;;4989160;28;20149;-64
2021/12/26 01:38:41;;;;;;;10.48;4.72;;;;;;;;;;4992982;28;20361;-63
2021/12/26 01:41:10;;;;;;;;;;;;;;;;;;4991416;28;20053;-63
2021/12/26 01:43:37;;;;;;;12.33;5.13;;;;;;;;;;4990533;28;19926;-63
2021/12/26 01:46:03;;;;;;;11.03;4.83;;;;;;;;;;4989741;28;20113;-63
2021/12/26 01:48:29;;;;;;;11.90;4.87;;;;;;;;;;5005269;28;20050;-63
2021/12/26 01:50:55;;;;;;;12.57;5.07;;;;;;;;;;4984051;28;20130;-63
2021/12/26 01:53:23;;;;;;;12.98;5.28;;;;;;;;;;4970877;28;20076;-63
2021/12/26 01:55:50;;;;;;;11.97;4.57;;;;;;;;;;4989232;28;20077;-63
2021/12/26 01:58:19;;;;;;;11.90;5.07;;;;;;;;;;4971677;28;20046;-63
2021/12/26 02:00:47;;;;;;;10.87;4.40;;;;;;;;;;4989456;28;20069;-64
2021/12/26 02:03:13;;;;;;;12.63;4.70;;;;;;;;;;4972391;28;20073;-63
2021/12/26 02:05:40;;;;;;;13.85;5.00;;;;;;;;;;4971424;28;20046;-63
2021/12/26 02:08:06;;;;;;;11.05;4.68;;;;;;;;;;4995042;28;20054;-64
2021/12/26 02:10:32;;;;;;;13.33;4.93;;;;;;;;;;5011616;28;20465;-63
2021/12/26 02:12:58;;;;;;;12.68;5.07;;;;;;;;;;5011234;28;20050;-63
2021/12/26 02:15:25;;;;;;;11.77;5.38;;;;;;;;;;4992752;28;20041;-63
2021/12/26 02:17:52;;;;;;;11.23;4.77;;;;;;;;;;4992187;28;20050;-63
2021/12/26 02:20:18;;;;;;;;;;;;;;;;;;5008605;28;20054;-63
2021/12/26 02:22:48;;;;;;;11.80;5.30;;;;;;;;;;5011371;28;19929;-63
2021/12/26 02:25:31;;;;;;;12.40;5.07;;;;;;;;;;4978590;28;20058;-63
2021/12/26 02:27:57;;;;;;;10.83;4.50;;;;;;;;;;4992164;28;20070;-63
2021/12/26 02:30:23;;;;;;;12.35;5.32;;;;;;;;;;5006002;28;20049;-64
2021/12/26 02:32:50;;;;;;;;;;;;;;;;;;5011660;28;20050;-63
2021/12/26 02:35:17;;;;;;;10.27;4.30;;;;;;;;;;4997982;28;19928;-63
2021/12/26 02:37:43;;;;;;;11.87;4.33;;;;;;;;;;5005842;28;20116;-63
2021/12/26 02:40:10;;;;;;;10.82;4.47;;;;;;;;;;5009049;28;20050;-63
2021/12/26 02:42:36;;;;;;;10.87;4.33;;;;;;;;;;5008964;28;20058;-63
2021/12/26 02:45:02;;;;;;;10.48;4.28;;;;;;;;;;5011415;28;20049;-63
2021/12/26 02:47:35;;;;;;;11.18;4.55;;;;;;;;;;5010783;28;20046;-63
2021/12/26 02:50:03;;;;;;;11.83;4.60;;;;;;;;;;4990969;28;20196;-63
2021/12/26 02:52:29;;;;;;;10.53;4.63;;;;;;;;;;4993079;28;20046;-63
2021/12/26 02:54:59;;;;;;;18.30;5.22;;;;;;;;;;5011055;28;20119;-63
2021/12/26 02:57:26;;;;;;;14.57;5.03;;;;;;;;;;5010196;28;20179;-64
2021/12/26 02:59:53;;;;;;;11.57;4.80;;;;;;;;;;5007938;28;20129;-63
2021/12/26 03:02:19;;;;;;;12.45;4.93;;;;;;;;;;5012099;28;20136;-63
2021/12/26 03:04:45;;;;;;;12.40;4.43;;;;;;;;;;5010468;28;20080;-64
2021/12/26 03:07:11;;;;;;;13.73;5.43;;;;;;;;;;5010852;28;20075;-64
2021/12/26 03:09:45;;;;;;;12.48;5.07;;;;;;;;;;5010445;28;20108;-64
2021/12/26 03:12:12;;;;;;;11.57;4.90;;;;;;;;;;5008573;28;20053;-64
2021/12/26 03:14:38;;;;;;;;;;;;;;;;;;5000657;28;20046;-64
2021/12/26 03:17:05;;;;;;;10.70;4.70;;;;;;;;;;4972440;28;19969;-63
2021/12/26 03:19:35;;;;;;;10.93;4.37;;;;;;;;;;4990114;28;20461;-64
2021/12/26 03:22:01;;;;;;;11.00;4.47;;;;;;;;;;4997925;28;20127;-64
2021/12/26 03:24:27;;;;;;;10.98;4.70;;;;;;;;;;4976438;28;20141;-64
2021/12/26 03:27:00;;;;;;;13.05;5.28;;;;;;;;;;4991072;28;20050;-63
2021/12/26 03:29:26;;;;;;;11.77;4.90;;;;;;;;;;4986428;28;20046;-63
2021/12/26 03:31:52;;;;;;;11.68;4.53;;;;;;;;;;4990453;28;20157;-63
2021/12/26 03:34:18;;;;;;;11.38;4.28;;;;;;;;;;4993109;28;20071;-64
2021/12/26 03:36:46;;;;;;;13.07;4.63;;;;;;;;;;5009794;28;20453;-63
2021/12/26 03:39:12;;;;;;;11.17;4.70;;;;;;;;;;4984362;28;20133;-64
2021/12/26 03:41:38;;;;;;;12.32;4.75;;;;;;;;;;4995850;28;20054;-65
2021/12/26 03:44:04;;;;;;;11.15;4.40;;;;;;;;;;5008905;28;20358;-64
2021/12/26 03:46:30;;;;;;;;;;;;;;;;;;4994922;28;20530;-65
2021/12/26 03:49:00;;;;;;;11.77;4.57;;;;;;;;;;4990493;28;19979;-63
2021/12/26 03:51:27;;;;;;;11.27;4.20;;;;;;;;;;4990708;28;20076;-63
2021/12/26 03:53:53;;;;;;;10.48;4.13;;;;;;;;;;5001272;28;20450;-63
2021/12/26 03:56:19;;;;;;;11.45;4.38;;;;;;;;;;5000150;28;20062;-63
2021/12/26 03:58:45;;;;;;;11.38;4.50;;;;;;;;;;4990349;28;20073;-63
2021/12/26 04:01:11;;;;;;;12.43;4.32;;;;;;;;;;4984097;28;20417;-63
2021/12/26 04:03:37;;;;;;;9.50;4.07;;;;;;;;;;4958693;28;20054;-64
2021/12/26 04:06:03;;;;;;;9.40;4.18;;;;;;;;;;4994203;28;20125;-63
2021/12/26 04:08:29;;;;;;;;;;;;;;;;;;5010469;28;20050;-63
2021/12/26 04:10:55;;;;;;;10.80;4.37;;;;;;;;;;5009399;28;19921;-63
2021/12/26 04:13:22;;;;;;;11.75;4.63;;;;;;;;;;4998199;28;20054;-62
2021/12/26 04:15:48;;;;;;;11.80;4.47;;;;;;;;;;4973480;28;20073;-63
2021/12/26 04:18:14;;;;;;;10.82;4.55;;;;;;;;;;5008075;28;20057;-62
2021/12/26 04:20:40;;;;;;;13.70;4.68;;;;;;;;;;4991536;28;20060;-63
2021/12/26 04:23:06;;;;;;;11.68;4.57;;;;;;;;;;5001473;28;20524;-62
2021/12/26 04:25:32;;;;;;;11.43;4.38;;;;;;;;;;4993367;28;20054;-62
2021/12/26 04:27:59;;;;;;;11.82;4.47;;;;;;;;;;4972415;28;20324;-62
2021/12/26 04:30:26;;;;;;;12.03;4.60;;;;;;;;;;4957410;28;20398;-63
2021/12/26 04:32:52;;;;;;;12.63;4.70;;;;;;;;;;4989913;28;20049;-63
2021/12/26 04:35:19;;;;;;;12.13;4.33;;;;;;;;;;4989991;28;20038;-62
2021/12/26 04:37:46;;;;;;;10.77;4.40;;;;;;;;;;4998870;28;20065;-63
2021/12/26 04:40:14;;;;;;;13.23;4.77;;;;;;;;;;4991271;28;20127;-63
2021/12/26 04:42:43;;;;;;;12.63;5.00;;;;;;;;;;4989544;28;20066;-65
2021/12/26 04:45:10;;;;;;;11.13;4.60;;;;;;;;;;4973199;28;20132;-62
2021/12/26 04:47:37;;;;;;;10.95;4.18;;;;;;;;;;4995081;28;20107;-62
2021/12/26 04:50:06;;;;;;;13.37;4.87;;;;;;;;;;4990084;28;20141;-62
2021/12/26 04:52:32;;;;;;;15.13;4.90;;;;;;;;;;4971673;28;20517;-62
2021/12/26 04:55:01;;;;;;;11.00;4.63;;;;;;;;;;4989137;28;20042;-63
2021/12/26 04:57:28;;;;;;;11.23;4.37;;;;;;;;;;4957551;28;20082;-63
2021/12/26 04:59:54;;;;;;;11.17;4.40;;;;;;;;;;4996891;28;20348;-63
2021/12/26 05:02:20;;;;;;;10.93;4.63;;;;;;;;;;4989704;28;20137;-63
2021/12/26 05:04:46;;;;;;;11.30;4.60;;;;;;;;;;4955609;28;20064;-63
2021/12/26 05:07:12;;;;;;;10.23;4.47;;;;;;;;;;4989310;28;20483;-62
2021/12/26 05:09:42;;;;;;;10.20;4.33;;;;;;;;;;4992657;28;20477;-63
2021/12/26 05:12:07;;;;;;;;;;;;;;;;;;4989710;28;20105;-62
2021/12/26 05:14:33;;;;;;;9.53;4.17;;;;;;;;;;4972470;28;20313;-62
2021/12/26 05:17:00;;;;;;;13.68;4.55;;;;;;;;;;4988912;28;20146;-61
2021/12/26 05:19:26;;;;;;;12.65;4.35;;;;;;;;;;4989500;28;20054;-62
2021/12/26 05:21:52;;;;;;;10.95;4.30;;;;;;;;;;5002759;28;20106;-63
2021/12/26 05:24:18;;;;;;;11.10;4.20;;;;;;;;;;4992939;28;20049;-63
2021/12/26 05:26:44;;;;;;;10.15;4.07;;;;;;;;;;4991426;28;20184;-62
2021/12/26 05:29:10;;;;;;;10.23;4.28;;;;;;;;;;5008653;28;20405;-63
2021/12/26 05:31:36;;;;;;;10.80;4.82;;;;;;;;;;5004271;28;20061;-63
2021/12/26 05:34:02;;;;;;;10.75;4.55;;;;;;;;;;4990899;28;20439;-62
2021/12/26 05:36:28;;;;;;;11.10;4.10;;;;;;;;;;5006860;28;20061;-62
2021/12/26 05:38:56;;;;;;;11.20;4.18;;;;;;;;;;5008686;28;20046;-63
2021/12/26 05:41:22;;;;;;;10.63;4.40;;;;;;;;;;4990760;28;20054;-62
2021/12/26 05:43:49;;;;;;;10.95;4.18;;;;;;;;;;5012271;28;20139;-62
2021/12/26 05:46:15;;;;;;;10.17;4.20;;;;;;;;;;5011053;28;20061;-62
2021/12/26 05:48:41;;;;;;;9.38;4.03;;;;;;;;;;5012381;28;20053;-63
2021/12/26 05:51:07;;;;;;;13.90;4.55;;;;;;;;;;5004141;28;20228;-62
2021/12/26 05:53:33;;;;;;;11.70;4.65;;;;;;;;;;4976023;28;20042;-63
2021/12/26 05:55:59;;;;;;;12.00;4.82;;;;;;;;;;5004038;28;20358;-63
2021/12/26 05:58:25;;;;;;;9.75;4.30;;;;;;;;;;5010729;28;20081;-62
2021/12/26 06:00:51;;;;;;;9.95;4.25;;;;;;;;;;5010188;28;20367;-63
2021/12/26 06:03:17;;;;;;;13.90;4.55;;;;;;;;;;5012318;28;20136;-62
2021/12/26 06:05:44;;;;;;;11.30;4.10;;;;;;;;;;4994427;28;20050;-63
2021/12/26 06:08:10;;;;;;;10.00;4.22;;;;;;;;;;4992269;28;20371;-63
2021/12/26 06:10:36;;;;;;;9.68;4.53;;;;;;;;;;4993125;28;20422;-63
2021/12/26 06:13:02;;;;;;;11.47;4.23;;;;;;;;;;4964734;28;20108;-63
2021/12/26 06:15:28;;;;;;;11.25;4.72;;;;;;;;;;4992928;28;20414;-63
2021/12/26 06:17:54;;;;;;;10.35;4.65;;;;;;;;;;4993499;28;20050;-63
2021/12/26 06:20:21;;;;;;;12.93;4.70;;;;;;;;;;4993458;28;20054;-62
2021/12/26 06:22:48;;;;;;;12.60;4.67;;;;;;;;;;5006140;28;20106;-63
2021/12/26 06:25:15;;;;;;;10.70;4.50;;;;;;;;;;4992537;28;20458;-63
2021/12/26 06:27:41;;;;;;;11.47;4.87;;;;;;;;;;5011893;28;20136;-62
2021/12/26 06:30:08;;;;;;;11.32;4.63;;;;;;;;;;4994055;28;20046;-63
2021/12/26 06:32:34;;;;;;;15.27;5.17;;;;;;;;;;4992478;28;20050;-63
2021/12/26 06:35:01;;;;;;;;;;;;;;;;;;4974592;28;20200;-63
2021/12/26 06:37:28;;;;;;;12.10;4.60;;;;;;;;;;5001735;28;19931;-63
2021/12/26 06:39:54;;;;;;;11.67;4.83;;;;;;;;;;4999879;28;20050;-63
2021/12/26 06:42:20;;;;;;;10.77;4.78;;;;;;;;;;4992617;28;20435;-63
2021/12/26 06:44:46;;;;;;;11.77;5.10;;;;;;;;;;4998798;28;20054;-63
2021/12/26 06:47:13;;;;;;;12.60;4.75;;;;;;;;;;4993269;28;20416;-63
2021/12/26 06:49:39;;;;;;;10.60;5.10;;;;;;;;;;5008852;28;20446;-63
2021/12/26 06:52:06;;;;;;;12.73;5.20;;;;;;;;;;4992399;28;20421;-64
2021/12/26 06:54:33;;;;;;;12.00;5.13;;;;;;;;;;4974084;28;20371;-63
2021/12/26 06:56:59;;;;;;;10.30;4.57;;;;;;;;;;4973657;28;20053;-64
2021/12/26 06:59:25;;;;;;;;;;;;;;;;;;4992656;28;20087;-63
2021/12/26 07:01:51;;;;;;;12.07;5.07;;;;;;;;;;4993055;28;19926;-62
2021/12/26 07:04:17;;;;;;;14.80;5.38;;;;;;;;;;5005163;28;20470;-63
2021/12/26 07:06:43;;;;;;;11.38;5.18;;;;;;;;;;4991889;28;20117;-63
2021/12/26 07:09:09;;;;;;;12.82;5.57;;;;;;;;;;4974541;28;20449;-62
2021/12/26 07:11:35;;;;;;;12.90;5.30;;;;;;;;;;4991652;28;20050;-62
2021/12/26 07:14:01;;;;;;;13.60;6.20;;;;;;;;;;5001064;28;20056;-66
2021/12/26 07:16:27;;;;;;;13.32;5.88;;;;;;;;;;4988186;28;20069;-63
2021/12/26 07:18:53;;;;;;;10.73;5.20;;;;;;;;;;4993448;28;20090;-62
2021/12/26 07:21:20;;;;;;;11.88;5.22;;;;;;;;;;4987281;28;20049;-63
2021/12/26 07:23:46;;;;;;;14.93;5.65;;;;;;;;;;4992474;28;20209;-63
2021/12/26 07:26:12;;;;;;;13.20;5.57;;;;;;;;;;4990681;28;20490;-63
2021/12/26 07:28:38;;;;;;;13.35;5.57;;;;;;;;;;4991262;28;20065;-63
2021/12/26 07:31:04;;;;;;;11.73;5.43;;;;;;;;;;4990785;28;20058;-63
2021/12/26 07:33:30;;;;;;;12.38;5.35;;;;;;;;;;4986792;28;20076;-63
2021/12/26 07:35:56;;;;;;;11.98;5.75;;;;;;;;;;4995298;28;20077;-63
2021/12/26 07:38:22;;;;;;;15.50;6.20;;;;;;;;;;4990291;28;20046;-62
2021/12/26 07:40:48;;;;;;;14.15;6.13;;;;;;;;;;5001039;28;20095;-62
2021/12/26 07:43:15;;;;;;;12.77;6.05;;;;;;;;;;4990949;28;20073;-63
2021/12/26 07:45:41;;;;;;;;;;;;;;;;;;4990890;28;20133;-63
2021/12/26 07:48:07;;;;;;;13.43;5.77;;;;;;;;;;4995415;28;20018;-64
2021/12/26 07:50:33;;;;;;;11.98;5.47;;;;;;;;;;4990047;28;20062;-64
2021/12/26 07:53:05;;;;;;;13.35;6.07;;;;;;;;;;4990466;28;20521;-64
2021/12/26 07:55:31;;;;;;;14.57;6.67;;;;;;;;;;5007987;28;20072;-63
2021/12/26 07:57:57;;;;;;;12.90;5.65;;;;;;;;;;4986555;28;20145;-63
2021/12/26 08:00:24;;;;;;;11.70;6.05;;;;;;;;;;4992619;28;20045;-63
2021/12/26 08:02:50;;;;;;;12.73;6.35;;;;;;;;;;5007034;28;20041;-63
2021/12/26 08:05:16;;;;;;;12.38;6.05;;;;;;;;;;5006154;28;20046;-64
2021/12/26 08:07:43;;;;;;;12.37;6.10;;;;;;;;;;5005917;28;20041;-63
2021/12/26 08:10:09;;;;;;;12.52;6.25;;;;;;;;;;5003603;28;20057;-63
2021/12/26 08:12:36;;;;;;;14.17;6.83;;;;;;;;;;4988211;28;20070;-63
2021/12/26 08:15:02;;;;;;;12.02;6.60;;;;;;;;;;4989263;28;20054;-63
2021/12/26 08:17:28;;;;;;;;;;;;;;;;;;4988570;28;20065;-63
2021/12/26 08:19:54;;;;;;;13.33;6.43;;;;;;;;;;4988224;28;19921;-64
2021/12/26 08:22:20;;;;;;;14.20;6.43;;;;;;;;;;4999998;28;20131;-64
2021/12/26 08:24:46;;;;;;;12.68;6.60;;;;;;;;;;4992217;28;20490;-64
2021/12/26 08:27:12;;;;;;;15.13;7.10;;;;;;;;;;5007058;28;20046;-65
2021/12/26 08:29:38;;;;;;;12.02;6.43;;;;;;;;;;5007634;28;20049;-64
2021/12/26 08:32:05;;;;;;;12.40;6.88;;;;;;;;;;5003723;28;20046;-65
2021/12/26 08:34:32;;;;;;;13.53;7.33;;;;;;;;;;4989663;28;20406;-64
2021/12/26 08:37:02;;;;;;;13.15;7.38;;;;;;;;;;5005751;28;20053;-64
2021/12/26 08:39:39;;;;;;;14.40;7.20;;;;;;;;;;5007300;28;20362;-65
2021/12/26 08:42:05;;;;;;;;;;;;;;;;;;4997993;28;20137;-63
2021/12/26 08:44:31;;;;;;;15.93;7.60;;;;;;;;;;4999645;28;20027;-64
2021/12/26 08:46:57;;;;;;;17.07;7.50;;;;;;;;;;4987417;28;20045;-63
2021/12/26 08:49:23;;;;;;;15.00;7.68;;;;;;;;;;4997710;28;20057;-64
2021/12/26 08:51:50;;;;;;;14.88;7.63;;;;;;;;;;5002040;28;20042;-63
2021/12/26 08:54:16;;;;;;;;;;;;;;;;;;5000896;28;20037;-64
2021/12/26 08:56:43;;;;;;;18.07;8.60;;;;;;;;;;5000323;28;19922;-63
2021/12/26 08:59:09;;;;;;;16.70;8.20;;;;;;;;;;5003487;28;20050;-63
2021/12/26 09:01:36;;;;;;;15.57;7.57;;;;;;;;;;4984101;28;20096;-64
2021/12/26 09:04:02;;;;;;;15.70;8.20;;;;;;;;;;5010108;28;20045;-64
2021/12/26 09:06:28;;;;;;;14.63;7.55;;;;;;;;;;5012348;28;20176;-64
2021/12/26 09:08:54;;;;;;;15.50;8.18;;;;;;;;;;5007695;28;20081;-63
2021/12/26 09:11:20;;;;;;;16.77;8.55;;;;;;;;;;5005837;28;20054;-63
2021/12/26 09:13:46;;;;;;;15.38;8.02;;;;;;;;;;5004408;28;20378;-63
2021/12/26 09:16:12;;;;;;;14.55;7.63;;;;;;;;;;5008649;28;20037;-63
2021/12/26 09:18:39;;;;;;;15.63;8.30;;;;;;;;;;4997621;28;20287;-62
2021/12/26 09:21:05;;;;;;;17.10;8.02;;;;;;;;;;5009780;28;20076;-63
2021/12/26 09:23:31;;;;;;;;;;;;;;;;;;4988445;28;20077;-63
2021/12/26 09:25:57;;;;;;;14.60;7.43;;;;;;;;;;5004256;28;20086;-65
2021/12/26 09:28:23;;;;;;;14.88;7.43;;;;;;;;;;5000811;28;20042;-62
2021/12/26 09:30:49;;;;;;;15.50;7.13;;;;;;;;;;4987794;28;20049;-63
2021/12/26 09:33:19;;;;;;;13.85;7.10;;;;;;;;;;4991730;28;20353;-63
2021/12/26 09:35:55;;;;;;;16.43;7.90;;;;;;;;;;5004773;28;20350;-64
2021/12/26 09:38:21;;;;;;;14.20;7.27;;;;;;;;;;5010528;28;20045;-63
2021/12/26 09:40:47;;;;;;;14.48;7.43;;;;;;;;;;5008712;28;20093;-63
2021/12/26 09:43:13;;;;;;;12.73;6.97;;;;;;;;;;5009071;28;20062;-64
2021/12/26 09:45:39;;;;;;;;;;;;;;;;;;4992669;28;20104;-62
2021/12/26 09:48:06;;;;;;;13.80;7.07;;;;;;;;;;4991533;28;20040;-63
2021/12/26 09:50:32;;;;;;;;;;;;;;;;;;5008301;28;20054;-63
2021/12/26 09:52:58;;;;;;;14.47;6.87;;;;;;;;;;5009172;28;20420;-63
2021/12/26 09:55:28;;;;;;;17.88;7.72;;;;;;;;;;5009178;28;20125;-63
2021/12/26 09:57:54;;;;;;;13.50;7.37;;;;;;;;;;5009505;28;20096;-63
2021/12/26 10:00:28;;;;;;;14.82;7.18;;;;;;;;;;5009170;28;20054;-63
2021/12/26 10:03:14;;;;;;;13.53;7.13;;;;;;;;;;5008810;28;20164;-64
2021/12/26 10:06:01;;;;;;;14.53;7.47;;;;;;;;;;5008908;28;20473;-63
2021/12/26 10:08:28;;;;;;;15.47;8.03;;;;;;;;;;5002897;28;20042;-63
2021/12/26 10:11:04;;;;;;;12.90;7.27;;;;;;;;;;5007168;28;20094;-63
2021/12/26 10:13:41;;;;;;;14.70;6.80;;;;;;;;;;4988358;28;20046;-63
2021/12/26 10:16:08;;;;;;;15.52;7.07;;;;;;;;;;4985215;28;20038;-62
2021/12/26 10:18:39;;;;;;;15.07;7.20;;;;;;;;;;5006532;28;20053;-62
2021/12/26 10:21:22;;;;;;;15.50;7.20;;;;;;;;;;4989024;28;20049;-63
2021/12/26 10:23:48;;;;;;;15.10;7.03;;;;;;;;;;5001347;28;20042;-64
2021/12/26 10:26:21;;;;;;;11.95;6.25;;;;;;;;;;4990335;28;20060;-63
2021/12/26 10:29:04;;;;;;;15.00;7.03;;;;;;;;;;4985347;28;20120;-62
2021/12/26 10:31:30;;;;;;;13.37;6.37;;;;;;;;;;4994003;28;20107;-64
2021/12/26 10:33:56;;;;;;;13.55;6.35;;;;;;;;;;5006884;28;20037;-63
2021/12/26 10:36:22;;;;;;;15.88;7.05;;;;;;;;;;5003906;28;20053;-63
2021/12/26 10:39:08;;;;;;;12.85;6.53;;;;;;;;;;4999784;28;20398;-64
2021/12/26 10:41:36;;;;;;;14.87;6.80;;;;;;;;;;4989664;28;20058;-63
2021/12/26 10:44:02;;;;;;;14.90;6.23;;;;;;;;;;5006383;28;20054;-64
2021/12/26 10:46:28;;;;;;;13.70;6.30;;;;;;;;;;5008130;28;20041;-63
2021/12/26 10:48:55;;;;;;;14.48;6.60;;;;;;;;;;4973984;28;20634;-63
2021/12/26 10:51:34;;;;;;;12.77;6.20;;;;;;;;;;4988755;28;20111;-63
2021/12/26 10:54:16;;;;;;;13.77;6.57;;;;;;;;;;4991331;28;20164;-63
2021/12/26 10:56:42;;;;;;;15.00;7.20;;;;;;;;;;4991151;28;20054;-63
2021/12/26 10:59:20;;;;;;;13.20;6.72;;;;;;;;;;4989834;28;20054;-62
2021/12/26 11:01:48;;;;;;;15.27;7.00;;;;;;;;;;4996202;28;20054;-63
2021/12/26 11:04:14;;;;;;;15.17;6.70;;;;;;;;;;5009407;28;20065;-63
2021/12/26 11:07:04;;;;;;;15.18;7.78;;;;;;;;;;4991223;28;20054;-63
2021/12/26 11:09:30;;;;;;;12.70;6.83;;;;;;;;;;4992104;28;20080;-63
2021/12/26 11:11:56;;;;;;;;;;;;;;;;;;4989989;28;20053;-63
2021/12/26 11:14:24;;;;;;;15.70;7.30;;;;;;;;;;4991825;28;20238;-63
2021/12/26 11:16:50;;;;;;;13.50;7.37;;;;;;;;;;5009047;28;20046;-63
2021/12/26 11:19:16;;;;;;;13.68;7.07;;;;;;;;;;5009801;28;20057;-63
2021/12/26 11:21:42;;;;;;;13.23;7.22;;;;;;;;;;4991703;28;20117;-64
2021/12/26 11:24:09;;;;;;;14.90;7.32;;;;;;;;;;5007181;28;20385;-64
2021/12/26 11:26:35;;;;;;;13.40;6.82;;;;;;;;;;5009364;28;20462;-64
2021/12/26 11:29:01;;;;;;;15.13;7.33;;;;;;;;;;5009554;28;20492;-63
2021/12/26 11:31:28;;;;;;;15.80;7.35;;;;;;;;;;5010248;28;20136;-64
2021/12/26 11:33:59;;;;;;;14.37;7.17;;;;;;;;;;5007451;28;20129;-63
2021/12/26 11:36:26;;;;;;;18.07;7.27;;;;;;;;;;5009135;28;20057;-64
2021/12/26 11:38:54;;;;;;;15.03;7.10;;;;;;;;;;4990131;28;20125;-64
2021/12/26 11:41:27;;;;;;;16.80;7.80;;;;;;;;;;5008602;28;20363;-63
2021/12/26 11:43:53;;;;;;;15.70;7.07;;;;;;;;;;4990169;28;20088;-63
2021/12/26 11:46:20;;;;;;;15.00;7.57;;;;;;;;;;5007974;28;20045;-65
2021/12/26 11:48:46;;;;;;;;;;;;;;;;;;5010043;28;20049;-64
2021/12/26 11:51:15;;;;;;;13.60;7.13;;;;;;;;;;5010064;28;20016;-64
2021/12/26 11:53:47;;;;;;;14.30;7.37;;;;;;;;;;5008974;28;20057;-64
2021/12/26 11:56:32;;;;;;;14.07;7.47;;;;;;;;;;5007247;28;20057;-63
2021/12/26 11:59:20;;;;;;;13.57;6.90;;;;;;;;;;4988615;28;20057;-64
2021/12/26 12:01:47;;;;;;;14.43;7.60;;;;;;;;;;5009465;28;20108;-64
2021/12/26 12:04:17;;;;;;;15.50;7.53;;;;;;;;;;5009305;28;20144;-64
2021/12/26 12:06:44;;;;;;;14.93;7.63;;;;;;;;;;5009403;28;20088;-64
2021/12/26 12:09:30;;;;;;;13.40;7.13;;;;;;;;;;5007811;28;20121;-64
2021/12/26 12:12:02;;;;;;;16.13;7.30;;;;;;;;;;5008809;28;20107;-66
2021/12/26 12:14:45;;;;;;;14.53;6.77;;;;;;;;;;5009832;28;20100;-63
2021/12/26 12:17:18;;;;;;;13.27;6.93;;;;;;;;;;5009175;28;20132;-64
2021/12/26 12:20:03;;;;;;;14.17;6.90;;;;;;;;;;5006074;28;20045;-65
2021/12/26 12:22:29;;;;;;;13.87;6.53;;;;;;;;;;4990350;28;20050;-64
2021/12/26 12:24:55;;;;;;;12.50;6.30;;;;;;;;;;4971169;28;20128;-64
2021/12/26 12:27:23;;;;;;;14.73;6.80;;;;;;;;;;4990036;28;20118;-66
2021/12/26 12:29:53;;;;;;;13.60;7.07;;;;;;;;;;4990978;28;20077;-66
2021/12/26 12:32:21;;;;;;;14.43;6.90;;;;;;;;;;4992116;28;20069;-67
2021/12/26 12:35:16;;;;;;;12.93;6.60;;;;;;;;;;5000521;28;20126;-64
2021/12/26 12:37:42;;;;;;;14.60;6.60;;;;;;;;;;4975699;28;20076;-65
2021/12/26 12:40:11;;;;;;;12.55;6.40;;;;;;;;;;4992720;28;20443;-64
2021/12/26 12:42:37;;;;;;;13.43;6.67;;;;;;;;;;5004395;28;20056;-66
2021/12/26 12:45:04;;;;;;;12.67;6.60;;;;;;;;;;4973407;28;20050;-67
2021/12/26 12:47:30;;;;;;;14.37;6.63;;;;;;;;;;4989622;28;20047;-69
2021/12/26 12:50:02;;;;;;;12.68;6.53;;;;;;;;;;4987486;28;20393;-67
2021/12/26 12:52:47;;;;;;;13.43;6.73;;;;;;;;;;4972577;28;20226;-64
2021/12/26 12:55:22;;;;;;;14.87;7.50;;;;;;;;;;4989459;28;20164;-65
2021/12/26 12:57:52;;;;;;;15.93;6.93;;;;;;;;;;4988987;28;20443;-65
2021/12/26 13:00:24;;;;;;;14.53;6.40;;;;;;;;;;4991295;28;20438;-66
2021/12/26 13:02:51;;;;;;;13.70;6.70;;;;;;;;;;4972707;28;20061;-64
2021/12/26 13:05:29;;;;;;;13.80;7.00;;;;;;;;;;4989747;28;20054;-65
2021/12/26 13:07:59;;;;;;;12.47;7.00;;;;;;;;;;4989724;28;20077;-66
2021/12/26 13:10:25;;;;;;;16.87;6.33;;;;;;;;;;4990093;28;20050;-64
2021/12/26 13:12:51;;;;;;;14.32;6.55;;;;;;;;;;4989499;28;20133;-68
2021/12/26 13:15:17;;;;;;;14.13;6.95;;;;;;;;;;5005031;28;20050;-67
2021/12/26 13:17:45;;;;;;;13.73;6.72;;;;;;;;;;4990749;28;20143;-66
2021/12/26 13:20:12;;;;;;;17.00;6.90;;;;;;;;;;4990526;28;20432;-66
2021/12/26 13:22:43;;;;;;;15.03;6.33;;;;;;;;;;4978591;28;20042;-68
2021/12/26 13:25:11;;;;;;;13.10;6.90;;;;;;;;;;5007949;28;20046;-68
2021/12/26 13:27:37;;;;;;;14.20;7.13;;;;;;;;;;5007498;28;20053;-67
2021/12/26 13:30:12;;;;;;;13.47;6.93;;;;;;;;;;5007803;28;20054;-67
2021/12/26 13:32:39;;;;;;;14.85;6.30;;;;;;;;;;4997422;28;20046;-65
2021/12/26 13:35:07;;;;;;;15.20;6.73;;;;;;;;;;4941550;28;20042;-66
2021/12/26 13:37:33;;;;;;;14.37;6.27;;;;;;;;;;4972899;28;20450;-66
2021/12/26 13:40:00;;;;;;;13.27;6.70;;;;;;;;;;5004123;28;20054;-68
2021/12/26 13:42:26;;;;;;;13.83;6.23;;;;;;;;;;5006872;28;20053;-68
2021/12/26 13:44:52;;;;;;;12.98;6.68;;;;;;;;;;5007928;28;20050;-64
2021/12/26 13:47:19;;;;;;;13.13;6.63;;;;;;;;;;5005313;28;20088;-65
2021/12/26 13:49:45;;;;;;;12.15;6.20;;;;;;;;;;4997045;28;20447;-67
2021/12/26 13:52:15;;;;;;;13.60;6.60;;;;;;;;;;5001780;28;20042;-66
2021/12/26 13:54:49;;;;;;;15.37;7.00;;;;;;;;;;4983129;28;20057;-69
2021/12/26 13:57:17;;;;;;;14.13;6.57;;;;;;;;;;4996165;28;20490;-67
2021/12/26 13:59:43;;;;;;;14.23;6.73;;;;;;;;;;4982649;28;20505;-67
2021/12/26 14:02:10;;;;;;;17.38;8.13;;;;;;;;;;5008703;28;20061;-67
2021/12/26 14:04:47;;;;;;;19.40;10.27;;;;;;;;;;5012876;28;20049;-66
2021/12/26 14:07:15;;;;;;;17.93;8.23;;;;;;;;;;5000902;28;20093;-67
2021/12/26 14:09:42;;;;;;;14.80;7.13;;;;;;;;;;5011830;28;20399;-66
2021/12/26 14:12:24;;;;;;;12.80;6.10;;;;;;;;;;5012285;28;20045;-69
2021/12/26 14:14:50;;;;;;;11.80;5.97;;;;;;;;;;4995192;28;20052;-69
2021/12/26 14:17:16;;;;;;;13.18;6.40;;;;;;;;;;4998652;28;20050;-67
2021/12/26 14:19:52;;;;;;;13.93;5.85;;;;;;;;;;5009889;28;20406;-66
2021/12/26 14:22:29;;;;;;;16.83;6.13;;;;;;;;;;5010650;28;20045;-67
2021/12/26 14:24:55;;;;;;;12.48;6.13;;;;;;;;;;5009435;28;20502;-68
2021/12/26 14:27:21;;;;;;;13.38;6.13;;;;;;;;;;5010475;28;20051;-66
2021/12/26 14:30:00;;;;;;;14.48;6.80;;;;;;;;;;5011773;28;20570;-64
2021/12/26 14:32:26;;;;;;;15.13;6.30;;;;;;;;;;5011424;28;20042;-66
2021/12/26 14:34:52;;;;;;;13.68;6.72;;;;;;;;;;4994748;28;20077;-64
2021/12/26 14:37:24;;;;;;;12.55;6.50;;;;;;;;;;5007850;28;20512;-66
2021/12/26 14:39:53;;;;;;;13.23;6.13;;;;;;;;;;5004915;28;20507;-66